Sun Valley, Arizona
Current Conditions -  °F | °C
As of 2:56 PM on Monday 22 Dec 2014 (Local Time) from KINW Reporting Station
Clear Clear  
Wind Chill: 64°   Ceiling: Unl
Heat Index: 64°   Visibility: 10mi
Dew Point: 31°   Wind: 18mph
Humidity: 29%   Direction: 300°WNW
Pressure: 29.88"   Gusts: 30mph
Location:  34.9°N, 110.16°W
Report Text: KINW 222156Z AUTO 30016G26KT 10SM CLR 18/M01 A2988 RMK AO2 PK WND 30029/2133 SLP093 T01781006
Loading
Personal Weather Stations






























Interactive Weather Map New forecast layout! Learn more

10-Day Weather Forecast

Advertisements
Track Severe Weather on mobile